Terminal Aerodrome Forecast
Issued by NWS

Home | Current Version | Previous Version | Graphics & Text | Print | Product List | Glossary On
Versions: 1 2 3 4 5 6 7 8 9 10 11 12 13 14 15 16 17 18 19
000
FTUS43 KMPX 261139
TAFAXN
TAF
KAXN 261139Z 2612/2712 27015G22KT P6SM SCT150
     FM261600 31015G22KT P6SM SCT025
     FM270100 33009KT P6SM SCT025 BKN100
     FM270600 VRB03KT P6SM BKN100=

USA.gov is the U.S. government's official web portal to all federal, state and local government web resources and services.